createdAt,value
2017-05-20T00:01:54.484Z,23.00
2017-05-20T00:04:23.196Z,22.90
2017-05-20T00:06:51.511Z,23.10
2017-05-20T00:09:19.829Z,23.10
2017-05-20T00:11:48.163Z,23.20
2017-05-20T00:14:16.476Z,23.20
2017-05-20T00:16:44.805Z,23.10
2017-05-20T00:19:13.133Z,23.00
2017-05-20T00:21:41.453Z,23.00
2017-05-20T00:24:09.768Z,23.10
2017-05-20T00:26:38.087Z,23.00
2017-05-20T00:29:06.462Z,23.10
2017-05-20T00:31:34.774Z,23.20
2017-05-20T00:34:03.116Z,23.20
2017-05-20T00:36:31.431Z,23.20
2017-05-20T00:38:59.787Z,23.10
2017-05-20T00:41:28.119Z,23.00
2017-05-20T00:43:56.436Z,22.90
2017-05-20T00:46:24.748Z,22.90
2017-05-20T00:48:53.073Z,22.70
2017-05-20T00:51:21.392Z,22.60
2017-05-20T00:53:49.709Z,22.70
2017-05-20T00:56:18.028Z,22.70
2017-05-20T00:58:46.343Z,22.70
2017-05-20T01:01:14.665Z,22.70
2017-05-20T01:03:43.243Z,22.70
2017-05-20T01:06:11.559Z,22.60
2017-05-20T01:08:39.892Z,22.50
2017-05-20T01:11:08.223Z,22.50
2017-05-20T01:13:36.552Z,22.60
2017-05-20T01:16:04.872Z,22.70
2017-05-20T01:18:33.199Z,22.80
2017-05-20T01:21:01.516Z,22.70
2017-05-20T01:23:29.832Z,22.60
2017-05-20T01:25:58.156Z,22.60
2017-05-20T01:28:26.473Z,22.50
2017-05-20T01:30:54.796Z,22.50
2017-05-20T01:33:23.264Z,22.60
2017-05-20T01:35:51.579Z,22.60
2017-05-20T01:38:19.891Z,22.50
2017-05-20T01:40:48.219Z,21.80
2017-05-20T01:43:16.527Z,21.60
2017-05-20T01:45:44.836Z,20.70
2017-05-20T01:48:13.167Z,20.40
2017-05-20T01:50:41.480Z,20.30
2017-05-20T01:53:09.791Z,20.20
2017-05-20T01:55:38.107Z,20.20
2017-05-20T01:58:06.424Z,19.90
2017-05-20T02:00:34.740Z,19.70
2017-05-20T02:03:03.068Z,19.90
2017-05-20T02:05:31.376Z,19.90
2017-05-20T02:07:59.690Z,20.10
2017-05-20T02:10:28.015Z,20.10
2017-05-20T02:12:56.324Z,20.10
2017-05-20T02:15:24.644Z,20.10
2017-05-20T02:17:52.972Z,20.10
2017-05-20T02:20:21.300Z,20.30
2017-05-20T02:22:49.613Z,20.10
2017-05-20T02:25:17.936Z,19.90
2017-05-20T02:27:46.255Z,19.70
2017-05-20T02:30:14.572Z,19.50
2017-05-20T02:32:42.891Z,19.20
2017-05-20T02:35:11.203Z,19.70
2017-05-20T02:37:39.517Z,19.60
2017-05-20T02:40:07.861Z,19.40
2017-05-20T02:42:36.176Z,19.60
2017-05-20T02:45:04.536Z,19.50
2017-05-20T02:47:32.854Z,19.60
2017-05-20T02:50:01.159Z,19.60
2017-05-20T02:52:29.471Z,19.80
2017-05-20T02:54:57.792Z,19.80
2017-05-20T02:57:26.115Z,19.90
2017-05-20T02:59:54.429Z,19.70
2017-05-20T03:02:22.759Z,19.60
2017-05-20T03:04:51.076Z,19.60
2017-05-20T03:07:19.393Z,19.30
2017-05-20T03:09:47.886Z,19.00
2017-05-20T03:12:16.214Z,19.00
2017-05-20T03:14:44.523Z,18.90
2017-05-20T03:17:12.843Z,18.70
2017-05-20T03:19:41.159Z,18.60
2017-05-20T03:22:09.481Z,18.50
2017-05-20T03:24:37.803Z,18.50
2017-05-20T03:27:06.120Z,18.20
2017-05-20T03:29:34.438Z,18.40
2017-05-20T03:32:02.768Z,18.40
2017-05-20T03:34:31.084Z,18.40
2017-05-20T03:36:59.400Z,18.40
2017-05-20T03:39:27.732Z,18.60
2017-05-20T03:41:56.060Z,18.60
2017-05-20T03:44:24.384Z,18.50
2017-05-20T03:46:52.708Z,18.40
2017-05-20T03:49:21.028Z,18.30
2017-05-20T03:51:49.341Z,18.30
2017-05-20T03:54:17.672Z,18.20
2017-05-20T03:56:45.996Z,18.20
2017-05-20T03:59:14.405Z,18.40
2017-05-20T04:01:42.750Z,18.20
2017-05-20T04:04:11.069Z,18.00
2017-05-20T04:06:39.380Z,18.00
2017-05-20T04:09:07.705Z,18.00
2017-05-20T04:11:36.033Z,18.00
2017-05-20T04:14:04.344Z,18.00
2017-05-20T04:16:32.671Z,18.10
2017-05-20T04:19:00.987Z,18.20
2017-05-20T04:21:29.399Z,18.30
2017-05-20T04:23:57.722Z,18.30
2017-05-20T04:26:26.028Z,18.20
2017-05-20T04:28:54.332Z,18.20
2017-05-20T04:31:22.645Z,18.00
2017-05-20T04:33:50.952Z,18.10
2017-05-20T04:36:19.263Z,18.10
2017-05-20T04:38:47.579Z,18.20
2017-05-20T04:41:15.892Z,18.10
2017-05-20T04:43:44.202Z,18.30
2017-05-20T04:46:12.519Z,18.60
2017-05-20T04:48:40.836Z,18.60
2017-05-20T04:51:09.140Z,18.50
2017-05-20T04:53:37.457Z,18.30
2017-05-20T04:56:05.759Z,18.20
2017-05-20T04:58:34.139Z,18.20
2017-05-20T05:01:02.455Z,18.30
2017-05-20T05:03:30.769Z,18.30
2017-05-20T05:05:59.071Z,18.60
2017-05-20T05:08:27.392Z,19.00
2017-05-20T05:10:55.703Z,18.80
2017-05-20T05:13:24.016Z,18.70
2017-05-20T05:15:52.336Z,18.80
2017-05-20T05:18:20.643Z,19.00
2017-05-20T05:20:48.952Z,19.00
2017-05-20T05:23:17.276Z,19.10
2017-05-20T05:25:45.583Z,19.10
2017-05-20T05:28:13.893Z,19.10
2017-05-20T05:30:42.210Z,19.30
2017-05-20T05:33:10.512Z,19.40
2017-05-20T05:35:38.827Z,19.00
2017-05-20T05:38:07.146Z,19.10
2017-05-20T05:40:35.448Z,19.50
2017-05-20T05:43:03.764Z,19.80
2017-05-20T05:45:32.092Z,19.90
2017-05-20T05:48:00.407Z,19.60
2017-05-20T05:50:28.723Z,19.50
2017-05-20T05:52:57.042Z,19.70
2017-05-20T05:55:25.348Z,19.90
2017-05-20T05:57:53.655Z,19.50
2017-05-20T06:00:21.987Z,19.20
2017-05-20T06:02:50.328Z,19.20
2017-05-20T06:07:56.116Z,19.30
2017-05-20T06:10:24.432Z,19.50
2017-05-20T06:12:52.740Z,19.70
2017-05-20T06:15:21.068Z,19.90
2017-05-20T06:17:49.382Z,19.30
2017-05-20T06:20:17.697Z,18.90
2017-05-20T06:22:46.017Z,18.90
2017-05-20T06:25:14.329Z,19.20
2017-05-20T06:27:42.643Z,19.20
2017-05-20T06:30:10.985Z,19.20
2017-05-20T06:32:39.301Z,19.40
2017-05-20T06:35:07.610Z,19.50
2017-05-20T06:37:35.923Z,19.50
2017-05-20T06:40:04.233Z,19.50
2017-05-20T06:42:32.547Z,19.40
2017-05-20T06:45:00.860Z,19.10
2017-05-20T06:47:29.165Z,19.20
2017-05-20T06:49:57.476Z,19.40
2017-05-20T06:52:25.884Z,19.60
2017-05-20T06:54:54.193Z,19.80
2017-05-20T06:57:22.507Z,19.80
2017-05-20T06:59:50.839Z,19.70
2017-05-20T07:02:19.159Z,19.50
2017-05-20T07:04:47.464Z,19.60
2017-05-20T07:07:15.788Z,19.40
2017-05-20T07:09:44.093Z,19.50
2017-05-20T07:12:12.395Z,19.70
2017-05-20T07:14:40.712Z,19.20
2017-05-20T07:17:09.024Z,19.20
2017-05-20T07:19:37.332Z,19.30
2017-05-20T07:22:05.661Z,19.40
2017-05-20T07:24:33.978Z,19.40
2017-05-20T07:27:02.284Z,19.70
2017-05-20T07:29:30.607Z,19.80
2017-05-20T07:31:58.936Z,19.90
2017-05-20T07:34:27.244Z,19.60
2017-05-20T07:36:55.560Z,19.50
2017-05-20T07:39:23.875Z,19.60
2017-05-20T07:41:52.187Z,19.80
2017-05-20T07:44:20.499Z,19.90
2017-05-20T07:46:48.811Z,20.10
2017-05-20T07:49:17.128Z,20.00
2017-05-20T07:51:45.447Z,20.20
2017-05-20T07:54:13.764Z,20.30
2017-05-20T07:56:42.077Z,20.10
2017-05-20T07:59:10.546Z,20.20
2017-05-20T08:01:38.856Z,20.20
2017-05-20T08:04:07.264Z,20.20
2017-05-20T08:06:35.576Z,20.10
2017-05-20T08:09:03.893Z,19.90
2017-05-20T08:11:32.746Z,20.10
2017-05-20T08:14:01.095Z,20.10
2017-05-20T08:16:29.404Z,20.20
2017-05-20T08:18:57.725Z,20.50
2017-05-20T08:21:26.044Z,20.30
2017-05-20T08:23:54.354Z,19.90
2017-05-20T08:26:22.655Z,19.60
2017-05-20T08:28:50.965Z,19.50
2017-05-20T08:31:19.272Z,19.50
2017-05-20T08:33:47.577Z,19.40
2017-05-20T08:36:15.910Z,19.60
2017-05-20T08:38:44.225Z,19.80
2017-05-20T08:41:12.552Z,20.00
2017-05-20T08:43:40.985Z,20.10
2017-05-20T08:46:09.313Z,20.10
2017-05-20T08:48:37.628Z,20.20
2017-05-20T08:51:05.946Z,20.20
2017-05-20T08:53:34.254Z,20.10
2017-05-20T08:56:02.563Z,19.90
2017-05-20T08:58:30.889Z,20.10
2017-05-20T09:00:59.205Z,20.00
2017-05-20T09:03:27.511Z,19.70
2017-05-20T09:05:55.841Z,19.90
2017-05-20T09:08:24.153Z,19.80
2017-05-20T09:10:52.471Z,19.80
2017-05-20T09:13:20.789Z,19.90
2017-05-20T09:15:49.095Z,19.80
2017-05-20T09:18:17.519Z,20.10
2017-05-20T09:20:46.039Z,20.20
2017-05-20T09:23:14.360Z,20.10
2017-05-20T09:25:42.668Z,20.00
2017-05-20T09:28:10.989Z,19.90
2017-05-20T09:30:39.294Z,19.90
2017-05-20T09:33:07.599Z,20.00
2017-05-20T09:35:35.927Z,20.20
2017-05-20T09:38:04.232Z,20.30
2017-05-20T09:40:32.539Z,20.50
2017-05-20T09:43:00.855Z,20.50
2017-05-20T09:45:29.155Z,20.70
2017-05-20T09:47:57.458Z,20.80
2017-05-20T09:50:25.771Z,20.70
2017-05-20T09:52:54.081Z,20.50
2017-05-20T09:55:22.386Z,20.40
2017-05-20T09:57:50.708Z,20.00
2017-05-20T10:00:19.007Z,19.90
2017-05-20T10:02:47.311Z,20.00
2017-05-20T10:05:15.628Z,20.00
2017-05-20T10:07:43.933Z,20.10
2017-05-20T10:10:12.261Z,20.30
2017-05-20T10:12:40.582Z,20.30
2017-05-20T10:15:08.888Z,20.20
2017-05-20T10:17:37.192Z,20.00
2017-05-20T10:20:05.513Z,20.00
2017-05-20T10:22:33.828Z,19.80
2017-05-20T10:25:02.138Z,19.80
2017-05-20T10:27:30.454Z,19.80
2017-05-20T10:29:58.772Z,19.80
2017-05-20T10:32:27.092Z,19.90
2017-05-20T10:34:55.402Z,20.00
2017-05-20T10:37:23.713Z,20.10
2017-05-20T10:39:52.021Z,20.10
2017-05-20T10:42:20.339Z,20.20
2017-05-20T10:44:48.647Z,20.20
2017-05-20T10:47:16.957Z,20.10
2017-05-20T10:49:45.292Z,20.00
2017-05-20T10:52:13.608Z,19.90
2017-05-20T10:54:41.945Z,19.90
2017-05-20T10:57:10.286Z,19.90
2017-05-20T10:59:38.744Z,19.90
2017-05-20T11:02:07.051Z,20.00
2017-05-20T11:04:35.403Z,19.90
2017-05-20T11:07:03.721Z,19.90
2017-05-20T11:09:32.072Z,20.20
2017-05-20T11:12:00.388Z,20.30
2017-05-20T11:14:28.700Z,20.30
2017-05-20T11:16:57.008Z,20.10
2017-05-20T11:19:25.328Z,20.10
2017-05-20T11:21:53.636Z,20.20
2017-05-20T11:24:21.940Z,20.10
2017-05-20T11:26:50.253Z,19.90
2017-05-20T11:29:18.564Z,19.70
2017-05-20T11:31:46.871Z,19.90
2017-05-20T11:34:15.180Z,19.70
2017-05-20T11:36:43.494Z,19.80
2017-05-20T11:39:11.811Z,19.80
2017-05-20T11:41:40.124Z,20.10
2017-05-20T11:44:08.424Z,20.20
2017-05-20T11:46:36.727Z,20.40
2017-05-20T11:49:05.041Z,20.30
2017-05-20T11:51:33.352Z,20.20
2017-05-20T11:54:01.668Z,20.00
2017-05-20T11:56:29.983Z,20.30
2017-05-20T11:58:58.298Z,20.20
2017-05-20T12:01:26.607Z,20.30
2017-05-20T12:03:54.935Z,20.20
2017-05-20T12:06:23.294Z,20.40
2017-05-20T12:08:51.596Z,20.30
2017-05-20T12:11:19.924Z,20.20
2017-05-20T12:13:48.265Z,20.20
2017-05-20T12:16:16.584Z,19.90
2017-05-20T12:18:44.900Z,19.90
2017-05-20T12:21:13.212Z,19.80
2017-05-20T12:23:41.650Z,19.90
2017-05-20T12:26:10.052Z,20.00
2017-05-20T12:28:38.364Z,20.00
2017-05-20T12:31:06.682Z,20.10
2017-05-20T12:33:35.180Z,20.20
2017-05-20T12:36:03.488Z,20.30
2017-05-20T12:38:31.795Z,20.30
2017-05-20T12:41:00.115Z,20.20
2017-05-20T12:43:28.496Z,20.30
2017-05-20T12:45:56.819Z,20.30
2017-05-20T12:48:25.136Z,20.10
2017-05-20T12:50:53.461Z,19.90
2017-05-20T12:53:21.767Z,19.90
2017-05-20T12:55:50.081Z,20.10
2017-05-20T12:58:18.392Z,20.20
2017-05-20T13:00:46.757Z,20.20
2017-05-20T13:03:15.108Z,20.10
2017-05-20T13:05:43.421Z,20.10
2017-05-20T13:08:11.743Z,20.20
2017-05-20T13:10:40.065Z,20.40
2017-05-20T13:13:08.380Z,20.60
2017-05-20T13:15:36.691Z,20.60
2017-05-20T13:18:05.011Z,20.30
2017-05-20T13:20:33.320Z,20.30
2017-05-20T13:23:01.671Z,20.10
2017-05-20T13:25:29.992Z,20.00
2017-05-20T13:27:58.296Z,20.00
2017-05-20T13:30:26.603Z,20.20
2017-05-20T13:32:54.922Z,20.20
2017-05-20T13:35:23.235Z,20.00
2017-05-20T13:37:51.539Z,19.90
2017-05-20T13:40:19.863Z,19.80
2017-05-20T13:42:48.188Z,20.00
2017-05-20T13:45:16.512Z,20.20
2017-05-20T13:47:44.846Z,20.30
2017-05-20T13:50:13.163Z,20.20
2017-05-20T13:52:41.484Z,20.20
2017-05-20T13:55:09.800Z,20.40
2017-05-20T13:57:38.112Z,20.40
2017-05-20T14:00:06.428Z,20.60
2017-05-20T14:02:34.847Z,20.50
2017-05-20T14:05:03.203Z,20.50
2017-05-20T14:07:31.572Z,20.00
2017-05-20T14:09:59.884Z,20.30
2017-05-20T14:12:28.200Z,20.30
2017-05-20T14:14:56.507Z,20.30
2017-05-20T14:17:24.824Z,20.20
2017-05-20T14:19:53.132Z,20.20
2017-05-20T14:22:21.435Z,20.10
2017-05-20T14:24:49.755Z,19.90
2017-05-20T14:27:18.060Z,19.90
2017-05-20T14:29:46.374Z,19.60
2017-05-20T14:32:14.687Z,19.80
2017-05-20T14:34:43.054Z,19.80
2017-05-20T14:37:11.367Z,20.00
2017-05-20T14:39:39.692Z,20.10
2017-05-20T14:42:07.995Z,20.20
2017-05-20T14:44:36.303Z,20.00
2017-05-20T14:47:04.621Z,19.80
2017-05-20T14:49:32.929Z,19.90
2017-05-20T14:52:01.236Z,19.90
2017-05-20T14:54:29.561Z,20.10
2017-05-20T14:56:57.875Z,19.90
2017-05-20T14:59:26.186Z,19.90
2017-05-20T15:01:54.500Z,19.90
2017-05-20T15:04:22.803Z,20.10
2017-05-20T15:06:51.215Z,20.20
2017-05-20T15:09:19.537Z,20.00
2017-05-20T15:11:47.847Z,19.80
2017-05-20T15:14:16.158Z,19.80
2017-05-20T15:16:44.471Z,19.70
2017-05-20T15:19:12.780Z,19.70
2017-05-20T15:21:41.091Z,19.70
2017-05-20T15:24:09.404Z,19.70
2017-05-20T15:26:38.096Z,19.90
2017-05-20T15:29:06.406Z,19.90
2017-05-20T15:31:34.824Z,19.80
2017-05-20T15:34:03.152Z,19.90
2017-05-20T15:36:31.471Z,19.90
2017-05-20T15:38:59.791Z,19.50
2017-05-20T15:41:28.108Z,19.30
2017-05-20T15:43:56.468Z,19.10
2017-05-20T15:46:24.959Z,19.20
2017-05-20T15:48:53.278Z,19.00
2017-05-20T15:51:21.617Z,19.00
2017-05-20T15:53:49.951Z,19.30
2017-05-20T15:56:18.286Z,19.40
2017-05-20T15:58:46.611Z,19.50
2017-05-20T16:01:14.932Z,19.40
2017-05-20T16:03:43.243Z,19.40
2017-05-20T16:06:11.608Z,19.50
2017-05-20T16:08:39.924Z,19.50
2017-05-20T16:11:08.232Z,19.40
2017-05-20T16:13:36.560Z,19.20
2017-05-20T16:16:14.821Z,19.30
2017-05-20T16:18:48.318Z,19.40
2017-05-20T16:21:16.825Z,19.60
2017-05-20T16:23:45.141Z,19.70
2017-05-20T16:26:14.647Z,19.60
2017-05-20T16:28:42.960Z,19.50
2017-05-20T16:31:11.365Z,19.60
2017-05-20T16:33:41.781Z,19.70
2017-05-20T16:36:10.219Z,19.50
2017-05-20T16:38:38.528Z,19.50
2017-05-20T16:41:06.843Z,19.60
2017-05-20T16:43:35.161Z,19.50
2017-05-20T16:46:03.541Z,19.40
2017-05-20T16:48:31.851Z,19.70
2017-05-20T16:51:00.176Z,19.90
2017-05-20T16:53:28.498Z,19.80
2017-05-20T16:55:56.811Z,19.60
2017-05-20T16:58:25.134Z,19.50
2017-05-20T17:00:53.435Z,19.40
2017-05-20T17:03:21.756Z,19.50
2017-05-20T17:05:50.286Z,19.60
2017-05-20T17:08:18.611Z,19.80
2017-05-20T17:10:46.921Z,19.80
2017-05-20T17:13:15.244Z,19.70
2017-05-20T17:15:43.551Z,19.60
2017-05-20T17:18:11.863Z,19.70
2017-05-20T17:20:41.178Z,19.60
2017-05-20T17:23:10.216Z,19.50
2017-05-20T17:25:38.548Z,19.60
2017-05-20T17:28:06.860Z,19.70
2017-05-20T17:30:35.252Z,19.90
2017-05-20T17:33:03.571Z,19.80
2017-05-20T17:35:31.889Z,20.00
2017-05-20T17:38:00.198Z,19.80
2017-05-20T17:40:28.519Z,19.80
2017-05-20T17:42:56.826Z,19.90
2017-05-20T17:45:25.141Z,20.00
2017-05-20T17:47:53.452Z,20.00
2017-05-20T17:50:21.764Z,19.70
2017-05-20T17:52:50.071Z,19.70
2017-05-20T17:55:18.402Z,19.70
2017-05-20T17:57:46.713Z,19.60
2017-05-20T18:00:15.041Z,19.60
2017-05-20T18:02:43.386Z,19.70
2017-05-20T18:05:13.020Z,19.70
2017-05-20T18:07:41.331Z,19.90
2017-05-20T18:10:09.646Z,20.00
2017-05-20T18:12:37.966Z,19.90
2017-05-20T18:15:06.276Z,19.90
2017-05-20T18:17:34.603Z,19.90
2017-05-20T18:20:02.916Z,19.90
2017-05-20T18:22:31.221Z,19.90
2017-05-20T18:24:59.599Z,19.80
2017-05-20T18:27:27.910Z,19.70
2017-05-20T18:29:56.225Z,19.60
2017-05-20T18:32:24.564Z,19.80
2017-05-20T18:34:52.895Z,19.80
2017-05-20T18:37:21.221Z,19.80
2017-05-20T18:39:49.544Z,19.80
2017-05-20T18:42:17.861Z,19.60
2017-05-20T18:44:46.183Z,19.70
2017-05-20T18:47:14.900Z,19.60
2017-05-20T18:49:43.244Z,19.60
2017-05-20T18:52:11.558Z,19.50
2017-05-20T18:54:40.684Z,19.70
2017-05-20T18:57:09.041Z,19.80
2017-05-20T18:59:37.363Z,19.80
2017-05-20T19:02:05.680Z,19.80
2017-05-20T19:04:33.985Z,19.80
2017-05-20T19:07:02.304Z,19.80
2017-05-20T19:09:30.712Z,19.70
2017-05-20T19:11:59.091Z,19.80
2017-05-20T19:14:27.409Z,19.60
2017-05-20T19:16:55.728Z,19.50
2017-05-20T19:19:24.036Z,19.50
2017-05-20T19:21:52.351Z,19.50
2017-05-20T19:24:20.669Z,19.40
2017-05-20T19:26:48.995Z,19.40
2017-05-20T19:29:17.324Z,19.40
2017-05-20T19:31:45.653Z,19.50
2017-05-20T19:34:13.958Z,19.40
2017-05-20T19:36:42.272Z,19.30
2017-05-20T19:39:10.587Z,19.40
2017-05-20T19:41:38.895Z,19.40
2017-05-20T19:44:07.288Z,19.40
2017-05-20T19:46:35.604Z,19.40
2017-05-20T19:49:03.917Z,19.20
2017-05-20T19:51:32.224Z,19.20
2017-05-20T19:54:00.929Z,19.10
2017-05-20T19:56:29.238Z,19.20
2017-05-20T19:58:57.556Z,19.20
2017-05-20T20:01:25.871Z,19.10
2017-05-20T20:03:54.230Z,19.20
2017-05-20T20:06:22.542Z,19.10
2017-05-20T20:08:50.863Z,19.00
2017-05-20T20:11:19.170Z,19.10
2017-05-20T20:13:47.486Z,19.20
2017-05-20T20:16:15.821Z,19.30
2017-05-20T20:18:44.132Z,19.30
2017-05-20T20:21:12.468Z,19.30
2017-05-20T20:23:40.790Z,19.20
2017-05-20T20:26:09.111Z,19.20
2017-05-20T20:28:37.436Z,19.20
2017-05-20T20:31:05.760Z,19.00
2017-05-20T20:33:34.065Z,18.80
2017-05-20T20:36:02.372Z,18.70
2017-05-20T20:38:30.701Z,18.70
2017-05-20T20:40:59.015Z,18.70
2017-05-20T20:43:27.320Z,18.60
2017-05-20T20:45:55.637Z,18.60
2017-05-20T20:48:23.955Z,18.70
2017-05-20T20:50:52.263Z,18.70
2017-05-20T20:53:20.572Z,18.80
2017-05-20T20:55:48.888Z,18.90
2017-05-20T20:58:17.205Z,18.90
2017-05-20T21:00:45.524Z,18.90
2017-05-20T21:03:13.838Z,18.90
2017-05-20T21:05:42.147Z,19.10
2017-05-20T21:08:10.727Z,19.20
2017-05-20T21:10:39.103Z,19.30
2017-05-20T21:13:07.416Z,19.10
2017-05-20T21:15:35.739Z,18.90
2017-05-20T21:18:04.056Z,19.00
2017-05-20T21:20:32.367Z,19.10
2017-05-20T21:23:00.683Z,19.00
2017-05-20T21:25:28.989Z,18.90
2017-05-20T21:27:57.308Z,19.00
2017-05-20T21:30:25.624Z,18.90
2017-05-20T21:32:53.936Z,18.90
2017-05-20T21:35:22.251Z,19.00
2017-05-20T21:37:50.564Z,18.90
2017-05-20T21:40:18.863Z,18.90
2017-05-20T21:42:47.168Z,18.90
2017-05-20T21:45:15.489Z,19.00
2017-05-20T21:47:43.821Z,19.00
2017-05-20T21:50:12.128Z,19.00
2017-05-20T21:52:40.455Z,19.00
2017-05-20T21:55:08.764Z,18.90
2017-05-20T21:57:37.076Z,19.00
2017-05-20T22:00:05.451Z,19.10
2017-05-20T22:02:33.756Z,19.00
2017-05-20T22:05:02.076Z,19.10
2017-05-20T22:07:30.396Z,19.10
2017-05-20T22:09:58.700Z,19.20
2017-05-20T22:12:27.008Z,18.90
2017-05-20T22:14:55.324Z,18.80
2017-05-20T22:17:23.649Z,18.80
2017-05-20T22:19:51.960Z,18.90
2017-05-20T22:22:20.306Z,18.90
2017-05-20T22:24:48.612Z,18.70
2017-05-20T22:27:16.927Z,18.80
2017-05-20T22:29:45.244Z,18.70
2017-05-20T22:32:13.549Z,18.70
2017-05-20T22:34:41.889Z,18.80
2017-05-20T22:37:10.212Z,18.90
2017-05-20T22:39:38.528Z,18.70
2017-05-20T22:42:06.849Z,18.80
2017-05-20T22:44:35.163Z,18.80
2017-05-20T22:47:03.475Z,18.70
2017-05-20T22:49:31.790Z,18.70
2017-05-20T22:52:00.109Z,18.80
2017-05-20T22:54:28.419Z,18.80
2017-05-20T22:56:56.724Z,18.70
2017-05-20T22:59:25.049Z,18.80
2017-05-20T23:01:53.356Z,18.70
2017-05-20T23:04:21.676Z,18.80
2017-05-20T23:06:49.992Z,18.80
2017-05-20T23:09:18.305Z,18.90
2017-05-20T23:11:46.617Z,18.80
2017-05-20T23:14:14.936Z,18.60
2017-05-20T23:16:43.251Z,18.70
2017-05-20T23:19:11.555Z,19.00
2017-05-20T23:21:40.088Z,18.90
2017-05-20T23:24:08.387Z,18.90
2017-05-20T23:26:36.688Z,18.90
2017-05-20T23:29:05.005Z,19.00
2017-05-20T23:31:33.312Z,19.00
2017-05-20T23:34:01.620Z,19.00
2017-05-20T23:36:29.935Z,19.00
2017-05-20T23:38:58.251Z,19.00
2017-05-20T23:41:26.559Z,19.10
2017-05-20T23:43:54.868Z,19.20
2017-05-20T23:46:23.208Z,19.10
2017-05-20T23:48:51.511Z,19.10
2017-05-20T23:51:19.827Z,18.90
2017-05-20T23:53:48.133Z,19.00
2017-05-20T23:56:16.463Z,19.00
2017-05-20T23:58:44.795Z,18.80
